Weather reports worldwide

Advertisment
Langdon Bay, United Kingdom (3796): temperature & dewpoint: 06.11.2019 05:00:00 - 12.11.2019 05:00:00 (GMT)Langdon Bay, United Kingdom (3796): wind speed & gusts: 06.11.2019 05:00:00 - 12.11.2019 05:00:00 (GMT)Langdon Bay, United Kingdom (3796): wind direction: 06.11.2019 05:00:00 - 12.11.2019 05:00:00 (GMT)Langdon Bay, United Kingdom (3796): reduced air pressure: 06.11.2019 05:00:00 - 12.11.2019 05:00:00 (GMT)
Date & Time tt [°C] td [°C] ff [km/h] ff [kn] fx [km/h] fx [kn] dd ppp [hPa]
12.11.2019 05:00:00 4,2 1,8 16 9 - - W 999,8
12.11.2019 04:00:00 4,2 1,8 18 10 - - W 999,8
12.11.2019 03:00:00 4,2 1,7 18 10 - - W 1000,3
12.11.2019 02:00:00 4,2 1,8 15 8 - - W 1000,8
12.11.2019 01:00:00 4,1 1,8 21 11 - - W 1001,1
12.11.2019 00:00:00 4,0 1,8 18 10 - - W 1001,4
11.11.2019 23:00:00 4,3 1,8 21 11 - - W 1001,7
11.11.2019 22:00:00 4,4 1,7 18 10 - - W 1002,0
11.11.2019 21:00:00 4,9 1,9 21 11 - - W 1002,0
11.11.2019 20:00:00 5,6 2,1 21 11 - - W 1002,2
11.11.2019 19:00:00 5,8 2,3 18 10 - - WSW 1001,9
11.11.2019 18:00:00 6,4 2,3 16 9 - - WSW 1001,8
11.11.2019 17:00:00 6,5 2,2 18 10 - - WSW 1001,6
11.11.2019 16:00:00 7,2 2,6 16 9 - - WSW 1001,4
11.11.2019 15:00:00 8,5 3,5 21 11 - - W 1001,0
11.11.2019 14:00:00 9,1 3,8 - - - - - -
11.11.2019 13:00:00 8,9 4,5 - - - - - -
11.11.2019 12:00:00 7,6 4,4 - - - - - 1000,6
11.11.2019 11:00:00 7,5 5,1 - - - - - 1000,6
11.11.2019 10:00:00 6,7 5,2 - - - - - 1000,4
11.11.2019 09:00:00 6,7 5,9 - - - - - 999,8
11.11.2019 08:00:00 8,8 8,3 - - - - - 999,1
11.11.2019 07:00:00 8,6 7,8 - - - - - 1000,3
11.11.2019 06:00:00 8,6 7,4 - - - - - 1001,9
11.11.2019 05:00:00 9,1 6,2 - - - - - 1003,0
11.11.2019 04:00:00 9,0 5,8 - - - - - 1004,9
11.11.2019 03:00:00 8,8 5,1 - - - - - 1006,3
11.11.2019 02:00:00 8,7 4,4 - - - - - 1008,0
11.11.2019 01:00:00 8,9 4,6 - - - - - 1009,4
11.11.2019 00:00:00 9,0 5,3 18 10 - - W 1010,4
10.11.2019 23:00:00 8,6 4,9 - - - - - 1011,3
10.11.2019 22:00:00 8,4 3,8 - - - - - 1012,4
10.11.2019 21:00:00 8,5 3,7 - - - - - 1012,4
10.11.2019 20:00:00 8,4 3,7 - - - - - 1012,3
10.11.2019 19:00:00 8,1 3,9 - - - - - 1013,8
10.11.2019 18:00:00 7,1 4,1 - - - - - 1014,0
10.11.2019 17:00:00 4,7 2,6 - - - - - 1014,7
10.11.2019 16:00:00 7,5 3,3 - - - - - 1014,4
10.11.2019 15:00:00 9,8 3,6 - - - - - 1013,7
10.11.2019 14:00:00 9,7 4,0 - - - - - 1013,4
10.11.2019 13:00:00 10,6 4,7 - - - - - 1013,0
10.11.2019 12:00:00 10,2 4,7 - - - - - 1012,7
10.11.2019 11:00:00 10,3 6,0 - - - - - 1012,7
10.11.2019 10:00:00 8,7 5,0 - - - - - 1011,9
10.11.2019 09:00:00 8,4 5,8 - - - - - 1010,9
10.11.2019 08:00:00 6,9 4,6 - - - - - 1010,2
10.11.2019 07:00:00 6,8 4,8 - - - - - 1008,9
10.11.2019 06:00:00 7,1 5,8 - - - - - 1007,8
10.11.2019 05:00:00 6,8 5,3 - - - - - 1007,1
10.11.2019 04:00:00 6,6 5,1 - - - - - 1006,3
10.11.2019 03:00:00 6,5 5,1 - - - - - 1005,4
10.11.2019 02:00:00 6,8 5,5 - - - - - 1005,0
10.11.2019 01:00:00 7,0 5,9 - - - - - 1004,4
10.11.2019 00:00:00 6,9 6,1 - - - - - 1004,0
09.11.2019 23:00:00 6,9 6,1 - - - - - 1003,7
09.11.2019 22:00:00 7,0 6,1 - - - - - 1003,4
09.11.2019 21:00:00 7,3 6,0 - - - - - 1003,4
09.11.2019 20:00:00 7,7 5,4 - - - - - 1003,2
09.11.2019 19:00:00 8,3 4,5 - - - - - 1003,4
09.11.2019 18:00:00 8,3 4,0 - - - - - 1003,6
09.11.2019 17:00:00 8,5 4,1 - - - - - 1003,6
09.11.2019 16:00:00 8,9 2,8 - - - - - 1004,0
09.11.2019 15:00:00 9,4 1,6 - - - - - 1004,5
09.11.2019 14:00:00 9,4 4,2 - - - - - 1005,3
09.11.2019 13:00:00 8,9 4,2 - - - - - 1006,3
09.11.2019 12:00:00 8,5 2,9 - - - - - 1007,0
09.11.2019 11:00:00 7,8 2,3 - - - - - 1008,0
09.11.2019 10:00:00 7,8 2,5 - - - - - 1008,7
09.11.2019 09:00:00 5,8 2,7 - - - - - 1009,2
09.11.2019 08:00:00 3,0 1,6 - - - - - 1009,6
09.11.2019 07:00:00 2,3 1,3 - - - - - 1009,6
09.11.2019 06:00:00 2,5 1,7 - - - - - 1009,8
09.11.2019 05:00:00 2,5 1,7 - - - - - 1010,0
09.11.2019 04:00:00 2,9 2,1 - - - - - 1010,3
09.11.2019 03:00:00 3,4 2,7 - - - - - 1010,2
09.11.2019 02:00:00 3,9 3,0 - - - - - 1010,1
09.11.2019 01:00:00 5,4 4,1 - - - - - 1010,4
09.11.2019 00:00:00 5,6 4,6 - - - - - 1010,1
08.11.2019 23:00:00 5,8 4,9 - - - - - 1009,9
08.11.2019 22:00:00 5,7 4,9 - - - - - 1010,1
08.11.2019 21:00:00 5,4 4,2 - - - - - 1009,8
08.11.2019 20:00:00 5,3 3,8 - - - - - 1009,3
08.11.2019 19:00:00 5,9 4,5 - - - - - 1009,2
08.11.2019 18:00:00 6,7 5,4 - - - - - 1008,7
08.11.2019 17:00:00 7,0 5,8 - - - - - 1008,1
08.11.2019 16:00:00 7,6 5,1 - - - - - 1007,8
08.11.2019 15:00:00 8,1 4,9 - - - - - 1007,0
08.11.2019 14:00:00 10,5 5,0 - - - - - 1006,3
08.11.2019 13:00:00 11,3 6,2 - - - - - 1006,0
08.11.2019 12:00:00 7,2 5,6 - - - - - 1005,8
08.11.2019 11:00:00 7,0 5,1 - - - - - 1005,7
08.11.2019 10:00:00 8,1 5,4 - - - - - 1005,3
08.11.2019 09:00:00 8,5 6,8 - - - - - 1004,5
08.11.2019 08:00:00 6,4 5,1 - - - - - 1004,2
08.11.2019 07:00:00 4,2 2,5 - - - - - 1003,4
08.11.2019 06:00:00 4,4 2,6 - - - - - 1002,3
08.11.2019 05:00:00 4,7 2,6 - - - - - 1001,5
08.11.2019 04:00:00 6,4 3,7 - - - - - 1000,9
08.11.2019 03:00:00 5,9 4,5 - - - - - 1000,3
08.11.2019 02:00:00 7,1 4,7 - - - - - 999,8
08.11.2019 01:00:00 8,2 4,3 - - - - - 999,4
08.11.2019 00:00:00 7,9 4,0 - - - - - 999,1
07.11.2019 23:00:00 6,9 4,1 - - - - - 998,9
07.11.2019 22:00:00 7,3 4,3 - - - - - 998,6
07.11.2019 21:00:00 7,8 5,4 - - - - - 998,1
07.11.2019 20:00:00 7,4 5,3 - - - - - 997,8
07.11.2019 19:00:00 7,0 3,5 - - - - - 997,2
07.11.2019 18:00:00 7,0 3,4 - - - - - 996,6
07.11.2019 17:00:00 8,3 3,5 - - - - - 995,7
07.11.2019 16:00:00 8,3 3,6 - - - - - 995,4
07.11.2019 15:00:00 9,2 3,8 - - - - - 994,5
07.11.2019 14:00:00 10,2 3,7 22 12 - - ESE 994,0
07.11.2019 13:00:00 9,8 4,5 26 14 - - SSE 993,4
07.11.2019 12:00:00 9,2 5,2 24 13 - - SSE 992,7
07.11.2019 11:00:00 8,4 5,8 22 12 - - S 992,7
07.11.2019 10:00:00 7,2 5,7 24 13 - - SSE 992,2
07.11.2019 09:00:00 6,9 6,3 18 10 - - SE 991,5
07.11.2019 08:00:00 6,8 6,5 8 4 - - WNW 991,1
07.11.2019 07:00:00 7,0 6,6 13 7 - - WNW 990,9
07.11.2019 06:00:00 8,4 7,7 29 16 65 35 WSW 990,8
07.11.2019 05:00:00 8,9 8,4 31 17 57 31 W 991,2
07.11.2019 04:00:00 8,9 7,6 39 21 54 29 E 992,1
07.11.2019 03:00:00 9,3 8,1 34 18 50 27 NNW 993,3
07.11.2019 02:00:00 9,7 8,3 29 16 52 28 E 994,3
07.11.2019 01:00:00 9,5 8,7 31 17 50 27 ENE 995,3
07.11.2019 00:00:00 9,2 7,8 26 14 - - ENE 996,6
06.11.2019 23:00:00 9,2 7,2 28 15 - - NE 997,9
06.11.2019 22:00:00 9,1 6,2 28 15 - - WSW 999,0
06.11.2019 21:00:00 8,9 5,0 22 12 - - NNW 1000,2
06.11.2019 20:00:00 8,9 4,2 11 6 - - SSE 1000,9
06.11.2019 19:00:00 8,6 3,2 9 5 - - SE 1001,8
06.11.2019 18:00:00 6,7 3,9 5 3 - - W 1002,8
06.11.2019 17:00:00 6,8 3,8 11 6 - - WSW 1003,3
06.11.2019 16:00:00 8,1 3,8 4 2 - - W 1003,8
06.11.2019 15:00:00 9,4 3,9 8 4 - - NW 1003,9
06.11.2019 14:00:00 9,1 4,3 5 3 - - WSW 1004,2
06.11.2019 13:00:00 9,3 5,4 9 5 - - SSW 1004,5
06.11.2019 12:00:00 10,3 5,0 13 7 - - SW 1004,9
06.11.2019 11:00:00 9,7 6,3 15 8 - - N 1005,3
06.11.2019 10:00:00 8,1 5,5 11 6 - - ESE 1005,5
06.11.2019 09:00:00 6,1 5,5 28 15 - - S 1005,6
06.11.2019 08:00:00 4,8 4,3 26 14 - - S 1005,6
06.11.2019 07:00:00 5,3 4,7 28 15 - - E 1005,0
06.11.2019 06:00:00 6,0 5,3 34 18 - - S 1004,4
06.11.2019 05:00:00 6,7 5,9 31 17 - - SSW 1004,2

tt = temperature
td = dewpoint
ff = wind speed
fx = gusts
dd = wind direction
ppp = reduced air pressure

Next stations